Aérodrome :
LOGIN :

S'inscrire | Disclaimer

   EN    FR    IT 

 










Légende :    VFR   VFR Marginal   IFR   IFR Intensif   IFR Très Intensif
Visi : 
Plafond : 
>= 8 km
>= 3000ft
5 à 8 km
1000 à 3000 ft
1500m à 5 km
500 à 1000 ft
800 à 1500m
200 à 500 ft
< 800m
< 200 ft
Symboles :   Orages  Brouillard  Fortes neiges  Fortes précipitations  Vent > 20 kt
SIGMETs :   Divers  Orages  Givrage  Turbulence  Onde Orograph.  Cendres Volcan.







- Altitude de l'aérodrome : 219 ft
- Code IATA : DNR
- Voir les cartes d'approche


LFRD - Dinard

DERNIER METAR :
  • 261830Z AUTO 13006KT 100V160 CAVOK 28/17 Q1010 NOSIG

METARs EXPIRÉS :
  • 261800Z AUTO 13007KT 110V170 CAVOK 28/17 Q1010 NOSIG
  • 261730Z AUTO 14008KT 100V170 CAVOK 29/17 Q1010 NOSIG
  • 261700Z AUTO 16009KT 130V200 CAVOK 29/16 Q1010 NOSIG
  • 261630Z AUTO 16008KT 100V190 CAVOK 29/16 Q1010 NOSIG
  • 261600Z AUTO 15009KT 110V180 CAVOK 29/16 Q1011 NOSIG

TAF TAF LFRD
Valide du 26 à 18h jusqu'au 27 à 18h UTC


261700Z 2618/2718 13010KT CAVOK
BECMG 2619/2621 14005KT
PROB40
TEMPO 2700/2706 VRB15G25KT 5000 TSRA BKN070CB
TEMPO 2704/2708 BKN008
BECMG 2704/2706 20010KT
BECMG 2710/2712 34010KT
TEMPO 2714/2718 BKN005
ATIS : +33 2 99 16 81 50
Pas de NOTAMs connus pour ce terrain.
1 SIGMET publié pour la FIR Brest (LFRR) :
 
Orages noyés dans la masse
LFRR SIGMET 2 VALID 261820/262000 LFPW
LFRR BREST FIR/UIR EMBD TS OBS WI N4330 W00215 - N4415 W00430 - N4445 W00430 - N4445 W00300 TOP FL400 MOV NE 10KT NC=



MET'MAP, la Météo Aéronautique d'un coup d'oeil ! - Copyright ORBIFLY Décembre 2007 - Disclaimer

ORBIFLY MET'MAP TEAM :

Programmation & Développement : Alexandra Zaïnal
Conception & Développement : Baudouin d'Aumeries
Co-Programmation & Développement : Marc-Olivier Méhu
Soutien technique & logistique : Manuel Goepfert

Contact : metmap@orbifly.com




SOURCES & CREDITS :

   NOAA